Time;durP1;ratioP1;P1;durP2;ratioP2;P2;SDS_P1;SDS_P2;PMS_P1;PMS_P2;Temp;Humidity;BMP_temperature;BMP_pressure;BME280_temperature;BME280_humidity;BME280_pressure;Samples;Min_cycle;Max_cycle;Signal;HPM_P1;HPM_P2
2021/10/31 00:00:36;;;;;;;27.10;23.90;;;12.40;99.90;;;;;;5033338;28;20037;-76
2021/10/31 00:03:02;;;;;;;33.25;22.58;;;12.50;99.90;;;;;;5047479;28;20427;-77
2021/10/31 00:05:28;;;;;;;29.92;22.90;;;12.50;99.90;;;;;;5033194;28;20034;-77
2021/10/31 00:07:54;;;;;;;27.00;22.20;;;12.60;99.90;;;;;;5043175;28;20033;-76
2021/10/31 00:10:20;;;;;;;28.83;23.65;;;12.60;99.90;;;;;;5066468;28;20025;-76
2021/10/31 00:12:46;;;;;;;31.35;22.45;;;12.60;99.90;;;;;;5040068;28;20400;-76
2021/10/31 00:15:12;;;;;;;30.38;22.58;;;12.60;99.90;;;;;;5050322;28;20025;-76
2021/10/31 00:17:38;;;;;;;28.23;22.77;;;12.60;99.90;;;;;;5045418;28;20044;-76
2021/10/31 00:20:06;;;;;;;28.50;23.13;;;12.60;99.90;;;;;;5036476;28;20498;-76
2021/10/31 00:22:32;;;;;;;27.02;24.15;;;12.60;99.90;;;;;;5035599;28;20033;-76
2021/10/31 00:24:57;;;;;;;28.92;23.70;;;12.50;99.90;;;;;;5063248;28;20708;-76
2021/10/31 00:27:23;;;;;;;28.33;23.33;;;12.40;99.90;;;;;;5046590;28;20128;-76
2021/10/31 00:29:49;;;;;;;29.45;22.83;;;12.40;99.90;;;;;;5038452;28;20029;-77
2021/10/31 00:32:15;;;;;;;25.02;22.02;;;12.30;99.90;;;;;;5037372;28;20110;-77
2021/10/31 00:34:40;;;;;;;29.15;23.67;;;12.30;99.90;;;;;;5039132;28;20029;-76
2021/10/31 00:37:06;;;;;;;29.38;22.17;;;12.20;99.90;;;;;;5035715;28;20122;-77
2021/10/31 00:39:32;;;;;;;27.67;23.77;;;12.20;99.90;;;;;;5040164;28;20041;-77
2021/10/31 00:41:58;;;;;;;29.58;24.02;;;12.10;99.90;;;;;;5038045;28;20199;-77
2021/10/31 00:44:23;;;;;;;28.60;24.02;;;12.10;99.90;;;;;;5043387;28;20112;-77
2021/10/31 00:46:49;;;;;;;33.15;24.92;;;12.00;99.90;;;;;;5047488;28;20029;-77
2021/10/31 00:49:15;;;;;;;29.70;23.65;;;11.90;99.90;;;;;;5039893;28;20028;-77
2021/10/31 00:51:41;;;;;;;29.40;22.92;;;11.90;99.90;;;;;;5032793;28;20045;-77
2021/10/31 00:54:07;;;;;;;26.42;22.65;;;11.90;99.90;;;;;;5041009;28;20022;-77
2021/10/31 00:56:34;;;;;;;30.13;24.90;;;11.80;99.90;;;;;;5033708;28;20079;-77
2021/10/31 00:59:00;;;;;;;28.10;23.20;;;11.70;99.90;;;;;;5042053;28;20021;-77
2021/10/31 01:01:28;;;;;;;30.70;23.85;;;11.70;99.90;;;;;;5048134;28;20063;-77
2021/10/31 01:03:56;;;;;;;32.63;25.02;;;11.60;99.90;;;;;;5040953;28;20545;-76
2021/10/31 01:06:34;;;;;;;27.42;23.23;;;11.60;99.90;;;;;;5033523;28;20013;-77
2021/10/31 01:09:10;;;;;;;28.13;23.63;;;11.50;99.90;;;;;;5056064;28;20052;-77
2021/10/31 01:11:54;;;;;;;32.85;24.15;;;11.40;99.90;;;;;;5031938;28;20029;-77
2021/10/31 01:14:39;;;;;;;29.95;24.85;;;11.40;99.90;;;;;;5040628;28;20033;-76
2021/10/31 01:17:20;;;;;;;33.47;24.85;;;11.30;99.90;;;;;;5035660;28;20098;-76
2021/10/31 01:20:05;;;;;;;28.83;24.70;;;11.30;99.90;;;;;;5044482;28;20028;-77
2021/10/31 01:22:57;;;;;;;28.73;24.80;;;11.20;99.90;;;;;;5044773;28;20025;-77
2021/10/31 01:25:59;;;;;;;31.23;25.25;;;11.10;99.90;;;;;;5050505;28;20392;-76
2021/10/31 01:28:59;;;;;;;33.28;25.65;;;11.00;99.90;;;;;;5045843;28;20033;-77
2021/10/31 01:31:57;;;;;;;31.20;25.45;;;11.10;99.90;;;;;;5036431;28;20067;-76
2021/10/31 01:34:44;;;;;;;33.20;26.77;;;11.00;99.90;;;;;;5048383;28;20044;-77
2021/10/31 01:37:28;;;;;;;33.20;26.30;;;11.00;99.90;;;;;;5044832;28;20368;-76
2021/10/31 01:40:12;;;;;;;30.98;26.30;;;10.90;99.90;;;;;;5046272;28;20021;-76
2021/10/31 01:43:04;;;;;;;32.60;26.17;;;10.90;99.90;;;;;;5047844;28;20384;-76
2021/10/31 01:46:02;;;;;;;33.38;26.10;;;10.90;99.90;;;;;;5051102;28;20028;-76
2021/10/31 01:48:58;;;;;;;32.97;27.55;;;10.90;99.90;;;;;;5005685;28;20473;-76
2021/10/31 01:51:33;;;;;;;33.72;27.45;;;10.80;99.90;;;;;;5033662;28;20037;-76
2021/10/31 01:54:06;;;;;;;33.63;27.15;;;10.80;99.90;;;;;;5038789;28;20029;-76
2021/10/31 01:56:36;;;;;;;31.10;26.30;;;10.70;99.90;;;;;;5033845;28;20017;-76
2021/10/31 01:59:14;;;;;;;33.97;27.48;;;10.70;99.90;;;;;;5039951;28;20033;-76
2021/10/31 02:01:41;;;;;;;31.45;26.98;;;10.70;99.90;;;;;;5034297;28;20571;-76
2021/10/31 02:04:10;;;;;;;31.92;27.30;;;10.60;99.90;;;;;;5039552;28;20033;-77
2021/10/31 02:06:40;;;;;;;35.22;27.13;;;10.60;99.90;;;;;;5033902;28;20509;-77
2021/10/31 02:09:06;;;;;;;34.60;28.23;;;10.60;99.90;;;;;;5039516;28;20480;-76
2021/10/31 02:11:35;;;;;;;35.08;27.48;;;10.60;99.90;;;;;;5048702;28;20021;-76
2021/10/31 02:14:02;;;;;;;36.17;28.50;;;10.60;99.90;;;;;;5040102;28;20049;-76
2021/10/31 02:16:29;;;;;;;33.50;28.60;;;10.60;99.90;;;;;;5033764;28;20021;-76
2021/10/31 02:19:02;;;;;;;34.80;28.52;;;10.60;99.90;;;;;;5046230;28;20026;-76
2021/10/31 02:21:31;;;;;;;32.92;27.55;;;10.60;99.90;;;;;;5045107;28;20029;-76
2021/10/31 02:23:58;;;;;;;39.45;28.70;;;10.60;99.90;;;;;;5039944;28;20488;-76
2021/10/31 02:26:24;;;;;;;31.65;26.65;;;10.60;99.90;;;;;;5032909;28;20517;-77
2021/10/31 02:29:02;;;;;;;40.70;28.55;;;10.50;99.90;;;;;;5039959;28;20025;-77
2021/10/31 02:31:29;;;;;;;32.78;26.75;;;10.50;99.90;;;;;;5030842;28;20033;-76
2021/10/31 02:33:55;;;;;;;33.72;27.70;;;10.50;99.90;;;;;;5046704;28;20059;-76
2021/10/31 02:36:21;;;;;;;34.05;28.05;;;10.50;99.90;;;;;;5047945;28;20029;-76
2021/10/31 02:38:46;;;;;;;34.30;29.40;;;10.50;99.90;;;;;;5046794;28;20028;-76
2021/10/31 02:41:13;;;;;;;36.03;28.40;;;10.40;99.90;;;;;;5045415;28;20025;-76
2021/10/31 02:43:39;;;;;;;36.47;28.52;;;10.40;99.90;;;;;;5038035;28;20112;-76
2021/10/31 02:46:05;;;;;;;35.95;28.05;;;10.40;99.90;;;;;;5046877;28;20105;-77
2021/10/31 02:48:31;;;;;;;35.38;30.27;;;10.40;99.90;;;;;;5043895;28;20029;-76
2021/10/31 02:51:14;;;;;;;35.08;28.85;;;10.40;99.90;;;;;;5042795;28;20025;-76
2021/10/31 02:53:55;;;;;;;32.63;27.02;;;10.30;99.90;;;;;;5040095;28;20045;-76
2021/10/31 02:56:33;;;;;;;29.65;26.45;;;10.30;99.90;;;;;;5048556;28;20087;-76
2021/10/31 02:59:17;;;;;;;41.17;28.83;;;10.30;99.90;;;;;;5071761;28;20431;-75
2021/10/31 03:01:44;;;;;;;38.38;29.67;;;10.30;99.90;;;;;;5032072;28;20064;-76
2021/10/31 03:04:10;;;;;;;35.75;30.25;;;10.30;99.90;;;;;;5038216;28;20482;-76
2021/10/31 03:06:36;;;;;;;40.03;30.30;;;10.20;99.90;;;;;;5032233;28;20125;-76
2021/10/31 03:09:03;;;;;;;40.75;30.48;;;10.20;99.90;;;;;;5039293;28;20018;-76
2021/10/31 03:11:29;;;;;;;37.28;30.98;;;10.10;99.90;;;;;;5031565;28;20029;-76
2021/10/31 03:13:55;;;;;;;36.92;30.50;;;10.10;99.90;;;;;;5039556;28;20028;-76
2021/10/31 03:16:20;;;;;;;32.42;28.80;;;10.10;99.90;;;;;;5033869;28;20108;-77
2021/10/31 03:18:46;;;;;;;33.50;29.63;;;10.10;99.90;;;;;;5043883;28;20025;-76
2021/10/31 03:21:12;;;;;;;38.28;30.65;;;10.00;99.90;;;;;;5048710;28;20052;-77
2021/10/31 03:23:38;;;;;;;39.05;30.30;;;10.00;99.90;;;;;;5045098;28;20025;-77
2021/10/31 03:26:04;;;;;;;39.83;30.02;;;10.00;99.90;;;;;;5034149;28;20028;-77
2021/10/31 03:28:30;;;;;;;38.17;31.02;;;10.00;99.90;;;;;;5041299;28;20025;-77
2021/10/31 03:30:56;;;;;;;35.75;29.33;;;10.00;99.90;;;;;;5053513;28;20081;-77
2021/10/31 03:33:22;;;;;;;38.40;30.83;;;10.00;99.90;;;;;;5077659;28;20036;-77
2021/10/31 03:35:48;;;;;;;37.28;30.38;;;10.00;99.90;;;;;;5033795;28;20014;-77
2021/10/31 03:38:13;;;;;;;40.10;30.52;;;10.00;99.90;;;;;;5043348;28;20033;-77
2021/10/31 03:40:39;;;;;;;36.40;29.42;;;10.00;99.90;;;;;;5052992;28;20471;-77
2021/10/31 03:43:05;;;;;;;37.17;30.50;;;10.10;99.90;;;;;;5040758;28;20024;-77
2021/10/31 03:45:31;;;;;;;42.42;29.33;;;10.10;99.90;;;;;;5048764;28;20032;-77
2021/10/31 03:47:57;;;;;;;37.13;27.85;;;10.20;99.90;;;;;;5050315;28;20473;-77
2021/10/31 03:50:22;;;;;;;37.20;29.33;;;10.30;99.90;;;;;;5046719;28;20087;-76
2021/10/31 03:52:50;;;;;;;32.53;27.25;;;10.40;99.90;;;;;;5043370;28;20651;-77
2021/10/31 03:55:17;;;;;;;34.70;28.17;;;10.50;99.90;;;;;;5050786;28;20517;-77
2021/10/31 03:57:43;;;;;;;34.28;27.38;;;10.50;99.90;;;;;;5043785;28;20033;-76
2021/10/31 04:00:11;;;;;;;32.47;28.60;;;10.60;99.90;;;;;;5050019;28;20024;-77
2021/10/31 04:02:38;;;;;;;34.17;27.98;;;10.60;99.90;;;;;;5047316;28;20029;-77
2021/10/31 04:05:08;;;;;;;31.17;27.10;;;10.60;99.90;;;;;;5036911;28;20022;-77
2021/10/31 04:07:34;;;;;;;34.83;28.15;;;10.70;99.90;;;;;;5035519;28;20052;-77
2021/10/31 04:10:01;;;;;;;31.15;26.13;;;10.70;99.90;;;;;;5048373;28;20075;-77
2021/10/31 04:12:26;;;;;;;33.50;27.20;;;10.80;99.90;;;;;;5047183;28;20037;-76
2021/10/31 04:14:52;;;;;;;36.15;27.70;;;10.80;99.90;;;;;;5035371;28;20037;-77
2021/10/31 04:17:18;;;;;;;32.38;27.15;;;10.90;99.90;;;;;;5037594;28;20490;-77
2021/10/31 04:19:43;;;;;;;43.22;27.33;;;10.90;99.90;;;;;;5039038;28;20433;-76
2021/10/31 04:22:09;;;;;;;32.75;25.20;;;11.00;99.90;;;;;;5035521;28;20052;-77
2021/10/31 04:24:35;;;;;;;30.67;26.42;;;11.00;99.90;;;;;;5072485;28;20112;-76
2021/10/31 04:27:02;;;;;;;32.08;26.17;;;11.00;99.90;;;;;;5042753;28;20108;-77
2021/10/31 04:29:28;;;;;;;29.77;26.27;;;11.10;99.90;;;;;;5041484;28;20074;-77
2021/10/31 04:31:54;;;;;;;31.60;25.90;;;11.00;99.90;;;;;;5046760;28;20045;-77
2021/10/31 04:34:20;;;;;;;34.40;26.90;;;11.00;99.90;;;;;;5042988;28;20037;-77
2021/10/31 04:36:46;;;;;;;31.25;26.48;;;10.90;99.90;;;;;;5043935;28;20029;-76
2021/10/31 04:39:13;;;;;;;32.88;27.17;;;10.90;99.90;;;;;;5075696;28;20025;-76
2021/10/31 04:41:42;;;;;;;33.72;26.30;;;10.80;99.90;;;;;;5049206;28;20036;-77
2021/10/31 04:44:08;;;;;;;32.65;28.10;;;10.80;99.90;;;;;;5045842;28;20111;-77
2021/10/31 04:46:33;;;;;;;32.92;27.00;;;10.70;99.90;;;;;;5048834;28;20606;-76
2021/10/31 04:48:59;;;;;;;34.10;27.33;;;10.60;99.90;;;;;;5048123;28;20102;-76
2021/10/31 04:51:25;;;;;;;37.53;28.90;;;10.60;99.90;;;;;;5049195;28;20103;-76
2021/10/31 04:53:50;;;;;;;36.15;27.45;;;10.50;99.90;;;;;;5041182;28;20033;-77
2021/10/31 04:56:17;;;;;;;31.45;28.08;;;10.50;99.90;;;;;;5037681;28;20072;-77
2021/10/31 04:58:42;;;;;;;31.38;27.95;;;10.40;99.90;;;;;;5039171;28;20033;-77
2021/10/31 05:01:08;;;;;;;33.58;28.15;;;10.40;99.90;;;;;;5049652;28;20051;-77
2021/10/31 05:03:34;;;;;;;34.92;28.33;;;10.30;99.90;;;;;;5041707;28;20476;-77
2021/10/31 05:05:59;;;;;;;35.78;29.70;;;10.30;99.90;;;;;;5044097;28;20024;-77
2021/10/31 05:08:26;;;;;;;32.90;29.33;;;10.20;99.90;;;;;;5036592;28;20547;-77
2021/10/31 05:10:53;;;;;;;36.60;29.23;;;10.20;99.90;;;;;;5046252;28;20032;-77
2021/10/31 05:13:19;;;;;;;38.70;30.10;;;10.20;99.90;;;;;;5047847;28;20033;-76
2021/10/31 05:15:44;;;;;;;31.75;28.33;;;10.20;99.90;;;;;;5052013;28;20052;-77
2021/10/31 05:18:10;;;;;;;37.10;29.88;;;10.10;99.90;;;;;;5045190;28;20041;-77
2021/10/31 05:20:36;;;;;;;35.17;28.73;;;10.10;99.90;;;;;;5032133;28;20155;-76
2021/10/31 05:23:01;;;;;;;36.20;29.60;;;10.10;99.90;;;;;;5042922;28;20033;-77
2021/10/31 05:25:27;;;;;;;34.83;30.05;;;10.10;99.90;;;;;;5031590;28;20056;-77
2021/10/31 05:27:53;;;;;;;36.70;29.17;;;10.10;99.90;;;;;;5054261;28;20040;-77
2021/10/31 05:30:19;;;;;;;37.83;29.45;;;10.10;99.90;;;;;;5048747;28;20029;-76
2021/10/31 05:32:46;;;;;;;35.97;29.58;;;10.10;99.90;;;;;;5048082;28;20037;-76
2021/10/31 05:35:12;;;;;;;35.25;28.85;;;10.10;99.90;;;;;;5035715;28;20072;-78
2021/10/31 05:37:42;;;;;;;35.20;29.73;;;10.10;99.90;;;;;;5045428;28;20141;-77
2021/10/31 05:40:10;;;;;;;33.20;29.35;;;10.10;99.90;;;;;;5033358;28;20499;-77
2021/10/31 05:42:36;;;;;;;39.97;29.75;;;10.10;99.90;;;;;;5037655;28;20059;-77
2021/10/31 05:45:02;;;;;;;32.38;28.80;;;10.10;99.90;;;;;;5035107;28;20025;-77
2021/10/31 05:47:28;;;;;;;35.35;29.35;;;10.30;99.90;;;;;;5037709;28;20017;-77
2021/10/31 05:49:54;;;;;;;35.13;28.73;;;10.40;99.90;;;;;;5036484;28;20029;-77
2021/10/31 05:52:20;;;;;;;31.55;27.92;;;10.50;99.90;;;;;;5036794;28;20039;-77
2021/10/31 05:54:46;;;;;;;32.97;28.23;;;10.60;99.90;;;;;;5044776;28;20029;-76
2021/10/31 05:57:12;;;;;;;34.80;26.50;;;10.60;99.90;;;;;;5045003;28;20112;-76
2021/10/31 05:59:37;;;;;;;29.92;25.25;;;10.70;99.90;;;;;;5038496;28;20022;-76
2021/10/31 06:02:07;;;;;;;31.00;27.52;;;10.70;99.90;;;;;;5038278;28;20139;-76
2021/10/31 06:04:32;;;;;;;33.75;27.25;;;10.70;99.90;;;;;;5041927;28;20021;-76
2021/10/31 06:06:58;;;;;;;30.83;27.23;;;10.70;99.90;;;;;;5048319;28;20555;-76
2021/10/31 06:09:24;;;;;;;29.27;26.20;;;10.80;99.90;;;;;;5042445;28;20044;-76
2021/10/31 06:11:50;;;;;;;34.13;26.98;;;10.80;99.90;;;;;;5045009;28;20507;-76
2021/10/31 06:14:16;;;;;;;35.97;27.27;;;10.90;99.90;;;;;;5038477;28;20026;-76
2021/10/31 06:16:41;;;;;;;30.00;25.45;;;11.00;99.90;;;;;;5035218;28;20051;-76
2021/10/31 06:19:07;;;;;;;30.58;26.02;;;11.10;99.90;;;;;;5042373;28;20078;-76
2021/10/31 06:21:33;;;;;;;34.53;26.95;;;11.10;99.90;;;;;;5048832;28;20033;-76
2021/10/31 06:23:59;;;;;;;32.05;26.60;;;11.20;99.90;;;;;;5046139;28;20029;-77
2021/10/31 06:26:24;;;;;;;29.52;25.60;;;11.20;99.90;;;;;;5047763;28;20028;-76
2021/10/31 06:28:50;;;;;;;33.08;26.58;;;11.30;99.90;;;;;;5044641;28;20141;-76
2021/10/31 06:31:16;;;;;;;34.50;26.65;;;11.30;99.90;;;;;;5049529;28;20102;-76
2021/10/31 06:33:42;;;;;;;30.83;27.33;;;11.40;99.90;;;;;;5048874;28;20033;-75
2021/10/31 06:36:08;;;;;;;32.50;26.27;;;11.50;99.90;;;;;;5048732;28;20029;-75
2021/10/31 06:38:34;;;;;;;27.98;24.95;;;11.50;99.90;;;;;;5041888;28;20040;-76
2021/10/31 06:41:00;;;;;;;30.23;26.35;;;11.50;99.90;;;;;;5030765;28;20022;-76
2021/10/31 06:43:27;;;;;;;31.20;25.38;;;11.60;99.90;;;;;;5046088;28;20040;-79
2021/10/31 06:45:53;;;;;;;29.38;25.02;;;11.60;99.90;;;;;;5049311;28;20056;-78
2021/10/31 06:48:18;;;;;;;32.53;26.02;;;11.70;99.90;;;;;;5042722;28;20483;-75
2021/10/31 06:50:44;;;;;;;26.27;23.30;;;11.80;99.90;;;;;;5040475;28;20387;-76
2021/10/31 06:53:10;;;;;;;27.45;24.65;;;11.90;99.90;;;;;;5048232;28;20072;-78
2021/10/31 06:55:36;;;;;;;28.35;25.42;;;12.00;99.90;;;;;;5034513;28;20021;-76
2021/10/31 06:58:03;;;;;;;28.73;24.98;;;12.10;99.90;;;;;;5045362;28;20032;-76
2021/10/31 07:00:28;;;;;;;27.70;24.42;;;12.10;99.90;;;;;;5034543;28;20116;-75
2021/10/31 07:02:54;;;;;;;29.33;24.38;;;12.20;99.90;;;;;;5044521;28;20109;-76
2021/10/31 07:05:20;;;;;;;29.77;24.65;;;12.40;99.90;;;;;;5036051;28;20018;-76
2021/10/31 07:07:45;;;;;;;27.48;24.00;;;12.50;99.90;;;;;;5043015;28;20084;-76
2021/10/31 07:10:14;;;;;;;25.15;22.48;;;12.60;99.90;;;;;;5037010;28;20026;-78
2021/10/31 07:12:41;;;;;;;28.35;23.42;;;12.80;99.90;;;;;;5041958;28;20045;-76
2021/10/31 07:15:07;;;;;;;32.63;24.55;;;12.80;99.90;;;;;;5037532;28;20132;-77
2021/10/31 07:17:33;;;;;;;26.92;23.08;;;12.90;99.90;;;;;;5043364;28;20021;-77
2021/10/31 07:19:58;;;;;;;27.10;23.92;;;12.90;99.90;;;;;;5052706;28;20468;-75
2021/10/31 07:22:24;;;;;;;28.35;23.55;;;13.00;99.90;;;;;;5045835;28;20613;-77
2021/10/31 07:24:52;;;;;;;25.50;22.77;;;13.00;99.90;;;;;;5052665;28;20024;-76
2021/10/31 07:27:18;;;;;;;27.30;23.45;;;13.10;99.90;;;;;;5047478;28;20039;-78
2021/10/31 07:29:44;;;;;;;24.13;21.38;;;13.20;99.90;;;;;;5040258;28;20017;-81
2021/10/31 07:32:10;;;;;;;27.50;23.35;;;13.30;99.90;;;;;;5040056;28;20052;-78
2021/10/31 07:34:35;;;;;;;28.92;23.10;;;13.40;99.90;;;;;;5077402;28;20068;-76
2021/10/31 07:37:01;;;;;;;28.40;22.70;;;13.50;99.90;;;;;;5045291;28;20033;-78
2021/10/31 07:39:29;;;;;;;27.90;22.02;;;13.70;99.90;;;;;;5041607;28;20025;-78
2021/10/31 07:41:55;;;;;;;25.13;22.23;;;13.80;99.90;;;;;;5046128;28;20606;-76
2021/10/31 07:44:21;;;;;;;29.02;22.05;;;13.90;99.90;;;;;;5042494;28;20068;-77
2021/10/31 07:46:47;;;;;;;27.23;22.55;;;14.10;99.90;;;;;;5037622;28;20041;-77
2021/10/31 07:49:12;;;;;;;23.80;21.27;;;14.20;99.90;;;;;;5044449;28;20025;-77
2021/10/31 07:51:38;;;;;;;25.83;21.17;;;14.30;99.90;;;;;;5050381;28;20083;-78
2021/10/31 07:54:04;;;;;;;23.08;20.70;;;14.50;99.90;;;;;;5041269;28;20018;-78
2021/10/31 07:56:34;;;;;;;25.15;21.10;;;14.70;99.90;;;;;;5034143;28;20032;-76
2021/10/31 07:58:59;;;;;;;24.63;21.75;;;14.70;99.90;;;;;;5040671;28;20108;-77
2021/10/31 08:01:25;;;;;;;26.70;21.23;;;14.80;99.90;;;;;;5033505;28;20489;-77
2021/10/31 08:03:53;;;;;;;23.98;20.27;;;15.00;99.90;;;;;;5044164;28;20534;-72
2021/10/31 08:06:20;;;;;;;23.65;21.10;;;15.10;99.90;;;;;;5052511;28;20128;-79
2021/10/31 08:08:46;;;;;;;24.98;20.25;;;15.30;99.90;;;;;;5039052;28;20037;-86
2021/10/31 08:11:11;;;;;;;26.30;20.73;;;15.40;99.90;;;;;;5058869;28;20052;-89
2021/10/31 08:13:38;;;;;;;23.77;21.00;;;15.50;99.90;;;;;;5048922;28;20036;-86
2021/10/31 08:16:05;;;;;;;23.63;21.00;;;15.70;99.90;;;;;;5045154;28;20052;-82
2021/10/31 08:18:31;;;;;;;26.33;22.15;;;15.90;99.90;;;;;;5044527;28;20112;-86
2021/10/31 08:20:56;;;;;;;24.35;20.55;;;16.00;99.90;;;;;;5034399;28;20536;-83
2021/10/31 08:23:22;;;;;;;25.70;20.58;;;16.20;99.90;;;;;;5048285;28;20140;-78
2021/10/31 08:25:49;;;;;;;28.98;21.00;;;16.40;99.90;;;;;;5053963;28;20079;-79
2021/10/31 08:28:17;;;;;;;23.27;20.17;;;16.60;99.90;;;;;;5050552;28;20110;-86
2021/10/31 08:30:55;;;;;;;26.65;21.27;;;16.70;99.90;;;;;;5053698;28;20017;-82
2021/10/31 08:33:26;;;;;;;23.73;20.23;;;16.80;99.90;;;;;;5048307;28;20060;-84
2021/10/31 08:35:52;;;;;;;22.83;19.27;;;16.90;99.90;;;;;;5034351;28;20088;-88
2021/10/31 08:38:18;;;;;;;22.10;18.25;;;17.00;99.90;;;;;;5048123;28;20582;-87
2021/10/31 08:40:46;;;;;;;26.02;21.00;;;17.10;99.90;;;;;;5057975;28;20047;-89
2021/10/31 08:43:12;;;;;;;22.70;20.30;;;17.20;99.90;;;;;;5043232;28;20439;-83
2021/10/31 08:45:41;;;;;;;22.58;20.25;;;17.30;99.90;;;;;;5054411;28;20021;-87
2021/10/31 08:48:07;;;;;;;22.48;19.55;;;17.30;99.90;;;;;;5043128;28;20052;-81
2021/10/31 08:50:33;;;;;;;24.25;20.67;;;17.40;99.90;;;;;;5052939;28;20108;-79
2021/10/31 08:52:58;;;;;;;20.30;17.85;;;17.40;99.90;;;;;;5047115;28;20101;-90
2021/10/31 08:55:24;;;;;;;23.98;18.60;;;17.60;99.90;;;;;;5033155;28;20022;-84
2021/10/31 08:57:50;;;;;;;23.98;19.60;;;17.70;99.90;;;;;;5041521;28;20021;-83
2021/10/31 09:00:16;;;;;;;23.00;20.67;;;17.80;99.90;;;;;;5036477;28;20377;-85
2021/10/31 09:02:42;;;;;;;26.58;23.73;;;17.90;99.90;;;;;;5044561;28;20039;-83
2021/10/31 09:05:08;;;;;;;29.13;22.55;;;18.00;99.90;;;;;;5045834;28;20040;-82
2021/10/31 09:07:34;;;;;;;27.63;22.27;;;18.10;99.90;;;;;;5044063;28;20056;-82
2021/10/31 09:10:01;;;;;;;24.83;21.85;;;18.20;99.90;;;;;;5049340;28;20550;-83
2021/10/31 09:12:27;;;;;;;24.95;22.13;;;18.20;99.90;;;;;;5047617;28;20124;-84
2021/10/31 09:14:53;;;;;;;23.70;20.63;;;18.20;99.90;;;;;;5035598;28;20053;-77
2021/10/31 09:17:20;;;;;;;24.30;21.50;;;18.40;99.90;;;;;;5036963;28;20029;-77
2021/10/31 09:19:45;;;;;;;24.92;22.27;;;18.50;99.90;;;;;;5045467;28;20021;-78
2021/10/31 09:22:11;;;;;;;25.77;20.63;;;18.60;99.90;;;;;;5046273;28;20036;-78
2021/10/31 09:24:37;;;;;;;24.27;20.85;;;18.60;99.90;;;;;;5043569;28;20016;-88
2021/10/31 09:27:04;;;;;;;26.98;20.88;;;18.50;99.90;;;;;;5047812;28;20043;-84
2021/10/31 09:29:31;;;;;;;25.70;21.95;;;18.40;99.90;;;;;;5051774;28;20049;-81
2021/10/31 09:31:58;;;;;;;27.35;21.30;;;18.10;99.90;;;;;;5048373;28;20029;-81
2021/10/31 09:34:26;;;;;;;25.08;21.42;;;18.00;99.90;;;;;;5050044;28;20032;-80
2021/10/31 09:36:52;;;;;;;26.90;22.08;;;17.80;99.90;;;;;;5045634;28;20087;-80
2021/10/31 09:39:17;;;;;;;27.67;21.88;;;17.60;99.90;;;;;;5040623;28;20025;-79
2021/10/31 09:41:43;;;;;;;30.20;24.38;;;17.40;99.90;;;;;;5030582;28;20017;-81
2021/10/31 09:46:39;;;;;;;29.08;25.17;;;16.80;99.90;;;;;;5040116;28;20071;-80
2021/10/31 09:49:06;;;;;;;31.48;25.20;;;16.50;99.90;;;;;;5044605;28;20020;-81
2021/10/31 09:51:32;;;;;;;29.67;26.25;;;16.30;99.90;;;;;;5038915;28;20033;-80
2021/10/31 09:53:59;;;;;;;32.78;27.38;;;16.20;99.90;;;;;;5038283;28;20017;-81
2021/10/31 09:56:25;;;;;;;27.98;24.95;;;16.10;99.90;;;;;;5030856;28;20021;-82
2021/10/31 09:58:52;;;;;;;29.63;26.15;;;16.10;99.90;;;;;;5040518;28;20053;-80
2021/10/31 10:01:37;;;;;;;30.48;25.13;;;16.10;99.90;;;;;;5045523;28;20049;-80
2021/10/31 10:04:03;;;;;;;32.33;25.65;;;16.20;99.90;;;;;;5036495;28;20036;-82
2021/10/31 10:06:29;;;;;;;31.08;25.38;;;16.20;99.90;;;;;;5031828;28;20021;-83
2021/10/31 10:09:04;;;;;;;32.15;26.45;;;16.30;99.90;;;;;;5037989;28;20021;-80
2021/10/31 10:11:32;;;;;;;28.10;24.65;;;16.50;99.90;;;;;;5028779;28;20575;-81
2021/10/31 10:14:09;;;;;;;31.13;25.38;;;16.70;99.90;;;;;;5041025;28;20067;-79
2021/10/31 10:16:34;;;;;;;28.30;24.90;;;17.00;99.90;;;;;;5047245;28;20576;-79
2021/10/31 10:19:12;;;;;;;32.25;25.55;;;17.00;99.90;;;;;;5044649;28;20033;-82
2021/10/31 10:21:38;;;;;;;31.92;24.85;;;16.90;99.90;;;;;;5047879;28;20104;-83
2021/10/31 10:24:09;;;;;;;29.10;25.40;;;16.90;99.90;;;;;;5041741;28;20096;-80
2021/10/31 10:26:41;;;;;;;30.88;25.58;;;16.90;99.90;;;;;;5052333;28;20087;-81
2021/10/31 10:29:14;;;;;;;34.00;26.83;;;17.00;99.90;;;;;;5036820;28;20029;-85
2021/10/31 10:31:42;;;;;;;33.17;26.10;;;16.90;99.90;;;;;;5034240;28;20021;-82
2021/10/31 10:34:10;;;;;;;30.08;24.23;;;16.80;99.90;;;;;;5043676;28;20641;-83
2021/10/31 10:36:56;;;;;;;25.90;23.17;;;16.70;99.90;;;;;;5052514;28;20018;-84
2021/10/31 10:39:22;;;;;;;30.73;26.00;;;17.00;99.90;;;;;;5055385;28;20013;-82
2021/10/31 10:41:51;;;;;;;29.45;26.05;;;17.10;99.90;;;;;;5049339;28;20131;-81
2021/10/31 10:44:25;;;;;;;32.97;25.83;;;17.20;99.90;;;;;;5043715;28;20456;-88
2021/10/31 10:46:56;;;;;;;29.50;25.17;;;17.20;99.90;;;;;;5039715;28;20028;-81
2021/10/31 10:49:23;;;;;;;33.45;26.50;;;17.20;99.90;;;;;;5044318;28;20025;-81
2021/10/31 10:52:41;;;;;;;37.90;27.65;;;17.10;99.90;;;;;;5048735;28;20060;-81
2021/10/31 10:55:27;;;;;;;36.03;29.20;;;17.10;99.90;;;;;;5026052;28;20038;-82
2021/10/31 10:58:07;;;;;;;36.53;30.15;;;17.00;99.90;;;;;;5043962;28;20037;-81
2021/10/31 11:00:38;;;;;;;36.85;29.60;;;16.90;99.90;;;;;;5033180;28;20120;-80
2021/10/31 11:03:09;;;;;;;43.63;34.83;;;17.10;99.90;;;;;;5045745;28;20098;-80
2021/10/31 11:05:39;;;;;;;44.85;34.45;;;17.20;99.90;;;;;;5033345;28;20108;-81
2021/10/31 11:08:13;;;;;;;42.53;32.63;;;16.90;99.90;;;;;;5045628;28;20113;-80
2021/10/31 11:10:54;;;;;;;41.80;31.77;;;16.90;99.90;;;;;;5033951;28;20060;-81
2021/10/31 11:13:20;;;;;;;38.08;30.52;;;16.90;99.90;;;;;;5044026;28;20045;-82
2021/10/31 11:15:46;;;;;;;39.50;33.42;;;16.90;99.90;;;;;;5033891;28;20542;-81
2021/10/31 11:18:12;;;;;;;51.67;36.33;;;16.70;99.90;;;;;;5043885;28;20037;-82
2021/10/31 11:20:41;;;;;;;46.97;35.88;;;16.80;99.90;;;;;;5032830;28;20544;-82
2021/10/31 11:23:10;;;;;;;44.65;35.28;;;16.80;99.90;;;;;;5045084;28;20025;-79
2021/10/31 11:25:38;;;;;;;50.97;33.00;;;16.80;99.90;;;;;;5032428;28;20021;-80
2021/10/31 11:28:07;;;;;;;50.90;36.80;;;17.00;99.90;;;;;;5045118;28;20542;-81
2021/10/31 11:30:34;;;;;;;44.45;34.72;;;17.30;99.90;;;;;;5033938;28;20017;-81
2021/10/31 11:33:01;;;;;;;46.30;35.72;;;17.40;99.80;;;;;;5043108;28;20049;-81
2021/10/31 11:35:28;;;;;;;42.83;34.08;;;17.20;99.90;;;;;;5032812;28;20036;-82
2021/10/31 11:38:06;;;;;;;47.53;36.80;;;17.10;99.90;;;;;;5042520;28;20025;-85
2021/10/31 11:40:45;;;;;;;52.80;36.97;;;17.00;99.40;;;;;;5033676;28;20384;-80
2021/10/31 11:43:19;;;;;;;50.30;37.53;;;17.00;98.50;;;;;;5043466;28;20033;-82
2021/10/31 11:45:46;;;;;;;44.67;34.17;;;16.90;99.90;;;;;;5031934;28;20574;-83
2021/10/31 11:48:17;;;;;;;39.58;31.38;;;17.30;99.90;;;;;;5044917;28;20082;-81
2021/10/31 11:51:03;;;;;;;42.17;33.35;;;17.80;99.90;;;;;;5033248;28;20025;-81
2021/10/31 11:53:33;;;;;;;47.78;34.80;;;17.90;97.50;;;;;;5049246;28;20033;-82
2021/10/31 11:56:04;;;;;;;47.38;34.20;;;17.90;94.00;;;;;;5050008;28;20036;-88
2021/10/31 11:58:43;;;;;;;50.85;36.10;;;17.90;95.60;;;;;;5041283;28;20488;-88
2021/10/31 12:01:20;;;;;;;47.72;35.00;;;17.80;95.50;;;;;;5034816;28;20111;-89
2021/10/31 12:03:50;;;;;;;41.60;34.00;;;18.00;94.50;;;;;;5036798;28;20026;-85
2021/10/31 12:06:16;;;;;;;42.30;33.28;;;18.50;93.10;;;;;;5036098;28;20059;-83
2021/10/31 12:08:55;;;;;;;39.72;31.08;;;19.10;90.40;;;;;;5054099;28;20025;-92
2021/10/31 12:11:33;;;;;;;39.47;31.60;;;19.60;92.60;;;;;;5051281;28;20112;-88
2021/10/31 12:14:05;;;;;;;42.97;33.97;;;20.10;92.20;;;;;;5039495;28;20033;-84
2021/10/31 12:16:54;;;;;;;39.55;31.92;;;20.20;91.90;;;;;;5038020;28;20028;-82
2021/10/31 12:19:37;;;;;;;43.33;32.22;;;20.40;91.40;;;;;;5044787;28;20039;-82
2021/10/31 12:22:21;;;;;;;;;;;20.30;91.50;;;;;;5052395;28;20028;-81
2021/10/31 12:24:50;;;;;;;45.03;31.95;;;20.50;90.50;;;;;;5037596;28;19905;-86
2021/10/31 12:27:23;;;;;;;46.50;34.40;;;20.50;90.30;;;;;;5041177;28;20017;-87
2021/10/31 12:30:15;;;;;;;42.53;33.78;;;20.20;89.40;;;;;;5058262;28;20077;-84
2021/10/31 12:32:43;;;;;;;43.47;35.03;;;20.20;91.50;;;;;;5042975;28;20040;-86
2021/10/31 12:35:35;;;;;;;46.13;36.75;;;20.40;90.50;;;;;;5034323;28;20021;-85
2021/10/31 12:38:16;;;;;;;41.42;34.97;;;20.40;89.80;;;;;;5051277;28;20071;-88
2021/10/31 12:41:00;;;;;;;48.30;37.00;;;20.20;90.30;;;;;;5054635;28;20025;-85